SUCCESS DAM (SCC)

Elevation: 692' · TULE R basin · Operator: US Army Corps of Engineers

Provisional data, subject to change.
Query executed Thursday at 3:15:45   clock

Select a sensor type for a plot of data.
Note: Reservoir Flows are daily averages.

Earlier

Date RES ELE    STORAGE    RES CHG    TOC STO    ABV TOC    OUTFLOW    INFLOW    FNF    PPT INC    PPTINC4    TEMP MN    TEMP MX    WINDLEN    EVP PAN   
 FEET   AF   AF   AF   AF   CFS   CFS   CFS   INCHES   INCHES   DEG F   DEG F   MILES   INCHES  
09/03/2014 583.40 5274 -36 79339 -74065 20 5 5 0.00 0.00 18 36 58 0.25
09/04/2014 583.15 5193 -81 78353 -73160 40 2 2 0.00 0.00 17 37 52 0.24
09/05/2014 582.84 5093 -100 77366 -72273 45 -2 -2 0.00 0.00 18 38 57 0.25
09/06/2014 582.55 5001 -92 76379 -71378 43 -1 -1 0.00 0.00 18 38 58 0.25
09/07/2014 582.27 4914 -87 75392 -70478 40 -1 -1 0.00 0.00 17 38 51 0.23
09/08/2014 582.01 4833 -81 74405 -69572 38 -1 -1 0.00 0.00 21 34 53 0.17
09/09/2014 581.76 4757 -76 73418 -68661 36 0 0 0.00 0.00 15 34 58 0.23
09/10/2014 581.51 4681 -76 72432 -67751 36 0 0 0.00 0.00 18 37 55 0.24
09/11/2014 581.26 4606 -75 71445 -66839 36 0 0 0.00 0.00 -15 38 59 0.24
09/12/2014 581.10 4559 -47 70458 -65899 20 -1 -1 0.00 0.00 20 39 55 0.24
09/13/2014 581.01 4532 -27 69471 -64939 12 2 2 0.00 0.00 21 42 57 0.25
09/14/2014 580.92 4506 -26 68484 -63978 10 -1 -1 0.00 0.00 22 40 52 0.23
09/15/2014 580.83 4479 -27 67497 -63018 13 2 2 0.00 0.00 21 41 52 0.23
09/16/2014 580.72 4447 -32 66511 -62064 14 0 0 0.00 0.00 21 36 62 0.23
09/17/2014 580.61 4415 -32 65524 -61109 13 -0 0 0.00 0.00 20 38 59 0.23
09/18/2014 580.51 4386 -29 64537 -60151 13 0 0 0.00 0.00 16 32 58 0.20
09/19/2014 580.40 4355 -31 63550 -59195 13 -0 0 0.00 0.00 18 31 66 0.20
09/20/2014 580.31 4329 -26 62563 -58234 10 -1 -1 0.00 0.00 19 35 51 0.21
09/21/2014 580.24 4309 -20 61576 -57267 9 1 1 0.00 0.00 18 34 53 0.20
09/22/2014 580.15 4283 -26 60589 -56306 11 0 0 0.00 0.00 16 34 55 0.20
09/23/2014 580.06 4258 -25 59603 -55345 13 2 2 0.00 0.00 19 35 56 0.21
09/24/2014 579.93 4221 -37 58616 -54395 18 1 1 0.00 0.00 18 35 54 0.20
09/25/2014 579.70 4157 -64 57629 -53472 31 1 1 0.00 0.00 16 31 77 0.20
09/26/2014 579.47 4093 -64 56642 -52549 32 1 1 0.00 0.00 15 27 73 0.18
09/27/2014 579.23 4027 -66 55655 -51628 31 -1 -1 0.00 0.00 13 24 63 0.13
09/28/2014 579.01 3968 -59 54668 -50700 30 1 1 0.00 0.00 16 27 55 0.16
09/29/2014 578.78 3906 -62 53682 -49776 32 2 -- 0.00 0.00 12 28 56 0.17
09/30/2014 578.57 3850 -56 52695 -48845 30 4 -- 0.00 0.00 15 30 0 0.18
10/01/2014 -- -- -- 51708 -- -- -- -- -- 0.00 -- -- -- --
10/02/2014 -- -- -- -- -- -- -- -- -- -- -- -- -- --

Later | Latest

Warning! This data is preliminary and subject to revision.

Download Data Now Download Data Now | Show SCC Map | Plot SCC Data | 1 Month SCC Data | Real-Time SCC Data | SCC Info